Time;durP1;ratioP1;P1;durP2;ratioP2;P2;SDS_P1;SDS_P2;PMS_P1;PMS_P2;Temp;Humidity;BMP_temperature;BMP_pressure;BME280_temperature;BME280_humidity;BME280_pressure;Samples;Min_cycle;Max_cycle;Signal;HPM_P1;HPM_P2
2023/12/23 00:00:37;;;;;;;27.67;3.53;;;9.90;99.90;;;;;;5029132;27;20580;-75
2023/12/23 00:03:03;;;;;;;24.88;3.70;;;9.80;99.90;;;;;;5043457;28;20051;-74
2023/12/23 00:05:28;;;;;;;24.50;3.40;;;9.90;99.90;;;;;;5016587;27;20107;-74
2023/12/23 00:07:54;;;;;;;19.00;3.55;;;9.80;99.90;;;;;;5028027;28;20440;-74
2023/12/23 00:10:20;;;;;;;24.33;3.13;;;9.80;99.90;;;;;;5029272;28;20029;-75
2023/12/23 00:12:45;;;;;;;19.80;3.20;;;9.80;99.90;;;;;;5021484;28;20025;-74
2023/12/23 00:15:11;;;;;;;29.80;3.78;;;9.90;99.90;;;;;;5029005;28;20482;-74
2023/12/23 00:17:36;;;;;;;22.58;3.20;;;9.90;99.90;;;;;;5031691;28;20105;-74
2023/12/23 00:20:02;;;;;;;18.42;3.30;;;9.90;99.90;;;;;;5027574;28;20032;-74
2023/12/23 00:22:27;;;;;;;23.17;3.20;;;9.90;99.90;;;;;;5034539;28;20022;-74
2023/12/23 00:24:53;;;;;;;16.33;2.90;;;9.80;99.90;;;;;;5029308;28;20633;-74
2023/12/23 00:27:19;;;;;;;15.93;2.80;;;9.90;99.90;;;;;;5028817;28;20029;-74
2023/12/23 00:29:44;;;;;;;19.33;3.50;;;9.90;99.90;;;;;;5016665;28;20363;-74
2023/12/23 00:32:10;;;;;;;21.15;3.85;;;9.90;99.90;;;;;;5027498;28;20074;-74
2023/12/23 00:34:35;;;;;;;33.42;3.80;;;9.90;99.90;;;;;;5027030;28;20020;-74
2023/12/23 00:37:01;;;;;;;28.55;3.83;;;9.90;99.90;;;;;;5028945;28;20101;-74
2023/12/23 00:39:27;;;;;;;20.88;3.40;;;9.90;99.90;;;;;;5016074;28;20072;-75
2023/12/23 00:41:52;;;;;;;18.40;3.15;;;9.90;99.90;;;;;;5028302;28;20112;-74
2023/12/23 00:44:18;;;;;;;21.08;2.90;;;10.00;99.90;;;;;;5027705;28;20082;-74
2023/12/23 00:46:44;;;;;;;16.95;2.95;;;10.00;99.90;;;;;;5027164;28;20382;-74
2023/12/23 00:49:09;;;;;;;26.52;3.60;;;10.00;99.90;;;;;;5028538;28;20026;-75
2023/12/23 00:51:35;;;;;;;18.67;3.08;;;10.00;99.90;;;;;;5024855;28;20588;-75
2023/12/23 00:54:00;;;;;;;22.10;3.58;;;10.10;99.90;;;;;;5028941;28;20435;-75
2023/12/23 00:56:26;;;;;;;24.33;3.60;;;10.00;99.90;;;;;;5022369;28;20382;-75
2023/12/23 00:58:52;;;;;;;25.88;3.13;;;10.10;99.90;;;;;;5024824;28;20409;-74
2023/12/23 01:01:17;;;;;;;19.92;3.55;;;10.10;99.90;;;;;;5028886;28;20068;-74
2023/12/23 01:03:43;;;;;;;24.15;3.33;;;10.10;99.90;;;;;;5022094;28;20018;-74
2023/12/23 01:06:09;;;;;;;18.38;3.10;;;10.10;99.90;;;;;;5054402;28;20013;-74
2023/12/23 01:08:35;;;;;;;23.23;3.25;;;10.10;99.90;;;;;;5028528;28;20098;-74
2023/12/23 01:11:00;;;;;;;18.33;3.38;;;10.10;99.90;;;;;;5028439;28;20025;-74
2023/12/23 01:13:26;;;;;;;18.02;2.80;;;10.10;99.90;;;;;;5024477;28;20026;-74
2023/12/23 01:15:52;;;;;;;12.50;2.65;;;10.00;99.90;;;;;;5023963;28;20061;-74
2023/12/23 01:18:18;;;;;;;14.57;2.58;;;10.00;99.90;;;;;;5028611;28;20370;-74
2023/12/23 01:20:43;;;;;;;17.60;2.97;;;10.00;99.90;;;;;;5015600;28;20113;-74
2023/12/23 01:23:10;;;;;;;16.27;2.47;;;9.90;99.90;;;;;;5019819;28;20022;-74
2023/12/23 01:25:35;;;;;;;16.50;2.75;;;9.90;99.90;;;;;;5020372;28;20417;-74
2023/12/23 01:28:04;;;;;;;13.27;2.55;;;9.80;99.90;;;;;;5010047;28;20014;-74
2023/12/23 01:30:33;;;;;;;13.75;2.75;;;9.80;99.90;;;;;;5020857;28;20052;-74
2023/12/23 01:32:59;;;;;;;17.50;3.28;;;9.70;99.90;;;;;;5023924;28;20021;-74
2023/12/23 01:35:25;;;;;;;24.42;2.83;;;9.70;99.90;;;;;;5027276;28;20049;-74
2023/12/23 01:37:51;;;;;;;15.23;2.35;;;9.70;99.90;;;;;;5027168;28;20090;-74
2023/12/23 01:40:17;;;;;;;19.48;2.90;;;9.70;99.90;;;;;;5019153;28;20029;-75
2023/12/23 01:42:42;;;;;;;25.75;2.88;;;9.80;99.90;;;;;;5027099;28;20044;-75
2023/12/23 01:45:09;;;;;;;26.98;3.30;;;9.80;99.90;;;;;;5017123;28;20443;-75
2023/12/23 01:47:38;;;;;;;31.38;4.53;;;9.80;99.90;;;;;;5026990;28;20022;-75
2023/12/23 01:50:05;;;;;;;24.15;3.40;;;9.80;99.90;;;;;;5012938;28;20063;-75
2023/12/23 01:52:32;;;;;;;25.02;3.05;;;9.80;99.90;;;;;;5016641;28;20037;-75
2023/12/23 01:54:58;;;;;;;22.58;3.72;;;9.90;99.90;;;;;;5027134;28;20041;-75
2023/12/23 01:57:24;;;;;;;16.05;2.90;;;9.90;99.90;;;;;;5028931;28;20049;-75
2023/12/23 01:59:50;;;;;;;19.92;2.72;;;10.00;99.90;;;;;;5028215;28;20481;-75
2023/12/23 02:02:16;;;;;;;17.45;2.55;;;10.00;99.90;;;;;;5026424;28;20025;-75
2023/12/23 02:04:42;;;;;;;15.05;2.63;;;10.00;99.90;;;;;;5037560;28;20081;-75
2023/12/23 02:07:08;;;;;;;19.75;2.90;;;10.00;99.90;;;;;;5042095;28;20021;-75
2023/12/23 02:09:33;;;;;;;14.25;2.28;;;9.90;99.90;;;;;;5027092;28;20093;-75
2023/12/23 02:12:10;;;;;;;15.63;2.35;;;9.90;99.90;;;;;;5030399;28;20100;-75
2023/12/23 02:14:42;;;;;;;20.92;3.08;;;9.80;99.90;;;;;;5027685;28;20536;-75
2023/12/23 02:17:09;;;;;;;16.20;3.03;;;9.80;99.90;;;;;;5022970;28;20067;-75
2023/12/23 02:19:34;;;;;;;22.85;2.97;;;9.80;99.90;;;;;;5028712;28;20030;-75
2023/12/23 02:22:00;;;;;;;19.15;3.10;;;9.80;99.90;;;;;;5024188;28;20038;-75
2023/12/23 02:24:26;;;;;;;21.27;3.05;;;9.80;99.90;;;;;;5028375;28;20448;-75
2023/12/23 02:27:08;;;;;;;21.30;3.33;;;9.80;99.90;;;;;;5029906;28;20026;-75
2023/12/23 02:29:35;;;;;;;20.27;3.00;;;9.90;99.90;;;;;;5029747;27;20063;-75
2023/12/23 02:32:01;;;;;;;20.35;3.08;;;9.90;99.90;;;;;;5015630;28;20512;-76
2023/12/23 02:34:28;;;;;;;21.95;2.63;;;10.00;99.90;;;;;;5028909;28;20028;-75
2023/12/23 02:36:53;;;;;;;19.30;2.88;;;10.00;99.90;;;;;;5028835;28;20028;-75
2023/12/23 02:39:19;;;;;;;21.38;2.70;;;10.10;99.90;;;;;;5027880;28;20486;-75
2023/12/23 02:41:44;;;;;;;19.20;2.90;;;10.10;99.90;;;;;;5029014;28;20026;-75
2023/12/23 02:44:10;;;;;;;16.70;2.65;;;10.10;99.90;;;;;;5019434;28;20026;-75
2023/12/23 02:46:37;;;;;;;16.42;2.85;;;10.10;99.90;;;;;;5015128;28;20013;-75
2023/12/23 02:49:02;;;;;;;18.75;2.70;;;10.10;99.90;;;;;;5029108;28;20018;-75
2023/12/23 02:51:28;;;;;;;16.35;2.80;;;10.10;99.90;;;;;;5026591;28;20048;-75
2023/12/23 02:53:54;;;;;;;20.98;2.78;;;10.20;99.90;;;;;;5026224;28;20030;-75
2023/12/23 02:56:19;;;;;;;20.88;3.05;;;10.20;99.90;;;;;;5027663;28;20117;-75
2023/12/23 02:58:45;;;;;;;23.45;3.20;;;10.20;99.90;;;;;;5027927;28;20040;-75
2023/12/23 03:01:10;;;;;;;19.70;2.80;;;10.20;99.90;;;;;;5026717;28;20513;-75
2023/12/23 03:03:36;;;;;;;18.10;2.80;;;10.30;99.90;;;;;;5017733;27;20393;-75
2023/12/23 03:06:02;;;;;;;20.77;2.80;;;10.30;99.90;;;;;;5028492;28;20504;-75
2023/12/23 03:08:27;;;;;;;25.50;2.75;;;10.30;99.90;;;;;;5024762;28;20105;-75
2023/12/23 03:10:53;;;;;;;20.23;2.40;;;10.30;99.90;;;;;;5020987;28;20478;-75
2023/12/23 03:13:18;;;;;;;19.98;2.80;;;10.30;99.90;;;;;;5023924;28;20022;-75
2023/12/23 03:15:44;;;;;;;15.80;2.78;;;10.30;99.90;;;;;;5020023;28;20045;-75
2023/12/23 03:18:09;;;;;;;21.58;2.85;;;10.30;99.90;;;;;;5095349;28;20073;-75
2023/12/23 03:20:35;;;;;;;13.57;2.42;;;10.30;99.90;;;;;;5027126;28;20112;-75
2023/12/23 03:23:02;;;;;;;13.32;2.47;;;10.30;99.90;;;;;;5030237;28;20030;-75
2023/12/23 03:25:29;;;;;;;18.75;2.50;;;10.30;99.90;;;;;;5029936;28;20036;-75
2023/12/23 03:27:54;;;;;;;19.30;2.60;;;10.40;99.90;;;;;;5030257;28;20021;-75
2023/12/23 03:30:20;;;;;;;17.52;2.90;;;10.30;99.90;;;;;;5026690;27;20037;-75
2023/12/23 03:32:46;;;;;;;15.23;2.67;;;10.40;99.90;;;;;;5028606;28;20366;-76
2023/12/23 03:35:12;;;;;;;20.00;3.15;;;10.40;99.90;;;;;;5030073;28;20025;-76
2023/12/23 03:37:37;;;;;;;20.88;2.78;;;10.30;99.90;;;;;;5030209;28;20034;-75
2023/12/23 03:40:04;;;;;;;19.08;2.90;;;10.30;99.90;;;;;;5029755;28;20103;-75
2023/12/23 03:42:30;;;;;;;19.40;2.90;;;10.30;99.90;;;;;;5029518;28;20035;-75
2023/12/23 03:44:55;;;;;;;19.45;2.85;;;10.30;99.90;;;;;;5024148;28;20022;-75
2023/12/23 03:47:21;;;;;;;19.65;2.85;;;10.30;99.90;;;;;;5029743;28;20021;-75
2023/12/23 03:49:46;;;;;;;23.65;3.45;;;10.30;99.90;;;;;;5029732;28;20343;-75
2023/12/23 03:52:12;;;;;;;15.25;2.33;;;10.30;99.90;;;;;;5029748;28;20013;-75
2023/12/23 03:54:38;;;;;;;14.50;2.20;;;10.30;99.90;;;;;;5016153;28;20366;-75
2023/12/23 03:57:03;;;;;;;21.90;3.00;;;10.30;99.90;;;;;;5022471;28;20022;-75
2023/12/23 03:59:29;;;;;;;17.50;2.83;;;10.30;99.90;;;;;;5026011;28;20147;-75
2023/12/23 04:01:55;;;;;;;12.88;2.60;;;10.30;99.90;;;;;;5022373;28;20044;-75
2023/12/23 04:04:20;;;;;;;22.70;2.90;;;10.30;99.90;;;;;;5030079;27;20030;-75
2023/12/23 04:06:46;;;;;;;18.63;2.80;;;10.30;99.90;;;;;;5028349;28;20126;-75
2023/12/23 04:09:12;;;;;;;19.60;2.80;;;10.30;99.90;;;;;;5028882;28;20029;-75
2023/12/23 04:11:38;;;;;;;20.83;2.80;;;10.30;99.90;;;;;;5029617;28;20028;-75
2023/12/23 04:14:03;;;;;;;17.40;2.83;;;10.30;99.90;;;;;;5025782;28;20022;-75
2023/12/23 04:16:29;;;;;;;18.90;2.90;;;10.30;99.90;;;;;;5012108;28;20045;-75
2023/12/23 04:18:55;;;;;;;23.02;2.75;;;10.30;99.90;;;;;;5027731;28;20467;-75
2023/12/23 04:21:20;;;;;;;21.65;2.70;;;10.30;99.90;;;;;;5028200;28;20041;-75
2023/12/23 04:23:46;;;;;;;15.75;2.50;;;10.30;99.90;;;;;;5025718;28;20033;-75
2023/12/23 04:26:14;;;;;;;24.33;3.17;;;10.30;99.90;;;;;;5026927;28;20046;-75
2023/12/23 04:28:40;;;;;;;19.60;2.83;;;10.30;99.90;;;;;;5027269;28;20025;-75
2023/12/23 04:31:06;;;;;;;22.17;3.75;;;10.30;99.90;;;;;;5028463;28;20086;-75
2023/12/23 04:33:34;;;;;;;20.35;3.22;;;10.30;99.90;;;;;;5029371;28;20054;-75
2023/12/23 04:36:00;;;;;;;29.30;3.28;;;10.30;99.90;;;;;;5027125;28;20584;-75
2023/12/23 04:38:25;;;;;;;19.65;2.70;;;10.30;99.90;;;;;;5061093;28;20033;-75
2023/12/23 04:40:51;;;;;;;18.00;3.15;;;10.30;99.90;;;;;;5096690;28;20022;-74
2023/12/23 04:43:17;;;;;;;17.02;2.70;;;10.30;99.90;;;;;;5024803;28;20018;-75
2023/12/23 04:45:42;;;;;;;19.85;2.75;;;10.30;99.90;;;;;;5033542;28;20052;-75
2023/12/23 04:48:08;;;;;;;20.67;3.10;;;10.40;99.90;;;;;;5028180;28;20398;-75
2023/12/23 04:50:34;;;;;;;15.57;2.60;;;10.40;99.90;;;;;;5019823;28;20029;-75
2023/12/23 04:52:59;;;;;;;18.95;2.90;;;10.30;99.90;;;;;;5046275;28;20028;-75
2023/12/23 04:55:25;;;;;;;20.65;2.97;;;10.40;99.90;;;;;;5010881;28;20109;-75
2023/12/23 04:57:51;;;;;;;20.65;3.25;;;10.40;99.90;;;;;;5027713;28;20069;-75
2023/12/23 05:00:16;;;;;;;23.70;3.28;;;10.40;99.90;;;;;;5030534;28;20414;-75
2023/12/23 05:02:42;;;;;;;24.67;3.25;;;10.40;99.90;;;;;;5018218;28;20154;-75
2023/12/23 05:05:08;;;;;;;24.65;3.17;;;10.40;99.90;;;;;;5019825;28;20466;-75
2023/12/23 05:07:33;;;;;;;19.25;3.15;;;10.40;99.90;;;;;;5028108;28;20022;-75
2023/12/23 05:09:59;;;;;;;23.17;3.15;;;10.40;99.90;;;;;;5010027;28;20466;-75
2023/12/23 05:12:25;;;;;;;20.40;3.13;;;10.40;99.90;;;;;;5008997;28;20055;-75
2023/12/23 05:14:51;;;;;;;22.00;3.20;;;10.40;99.90;;;;;;5030200;28;20046;-75
2023/12/23 05:17:17;;;;;;;22.05;3.17;;;10.40;99.90;;;;;;5027527;28;20120;-75
2023/12/23 05:19:42;;;;;;;21.55;3.50;;;10.40;99.90;;;;;;5028717;28;20044;-75
2023/12/23 05:22:08;;;;;;;16.13;3.03;;;10.40;99.90;;;;;;5024512;28;20029;-75
2023/12/23 05:24:37;;;;;;;21.83;3.38;;;10.40;99.90;;;;;;5025510;28;20676;-75
2023/12/23 05:27:03;;;;;;;17.13;3.15;;;10.40;99.90;;;;;;5028330;28;20045;-75
2023/12/23 05:29:29;;;;;;;18.98;2.55;;;10.40;99.90;;;;;;5031517;27;20021;-75
2023/12/23 05:31:55;;;;;;;29.52;3.67;;;10.40;99.90;;;;;;5043479;28;20032;-75
2023/12/23 05:34:20;;;;;;;20.83;3.50;;;10.40;99.90;;;;;;5031877;28;20025;-75
2023/12/23 05:36:46;;;;;;;15.52;2.88;;;10.50;99.90;;;;;;5031970;28;20466;-75
2023/12/23 05:39:11;;;;;;;20.75;3.20;;;10.40;99.90;;;;;;5031823;28;20041;-75
2023/12/23 05:41:37;;;;;;;19.02;2.95;;;10.50;99.90;;;;;;5023056;27;20026;-75
2023/12/23 05:44:03;;;;;;;20.15;3.58;;;10.40;99.90;;;;;;5029454;28;20018;-75
2023/12/23 05:46:28;;;;;;;24.70;3.45;;;10.40;99.90;;;;;;5028568;28;20018;-75
2023/12/23 05:48:54;;;;;;;21.38;3.05;;;10.40;99.90;;;;;;5027181;28;20029;-75
2023/12/23 05:51:19;;;;;;;24.08;3.58;;;10.40;99.90;;;;;;5031721;28;20421;-75
2023/12/23 05:53:45;;;;;;;20.42;3.50;;;10.40;99.90;;;;;;5031563;28;20074;-75
2023/12/23 05:56:10;;;;;;;20.38;3.63;;;10.50;99.90;;;;;;5031339;28;20061;-75
2023/12/23 05:58:36;;;;;;;20.75;3.50;;;10.50;99.90;;;;;;5031697;28;20534;-75
2023/12/23 06:01:02;;;;;;;21.95;3.40;;;10.50;99.90;;;;;;5025346;27;20101;-75
2023/12/23 06:03:28;;;;;;;23.67;3.88;;;10.50;99.90;;;;;;5020822;28;20141;-75
2023/12/23 06:05:54;;;;;;;21.70;3.72;;;10.60;99.90;;;;;;5030582;28;20053;-75
2023/12/23 06:08:19;;;;;;;26.17;3.92;;;10.50;99.90;;;;;;5031237;28;20638;-75
2023/12/23 06:10:45;;;;;;;26.85;3.45;;;10.50;99.90;;;;;;5030507;28;20037;-74
2023/12/23 06:13:10;;;;;;;24.30;3.85;;;10.50;99.90;;;;;;5030648;28;20086;-74
2023/12/23 06:15:36;;;;;;;20.15;3.67;;;10.50;99.90;;;;;;5027677;28;20049;-74
2023/12/23 06:18:02;;;;;;;23.35;3.83;;;10.50;99.90;;;;;;5040068;27;20029;-74
2023/12/23 06:20:28;;;;;;;31.10;4.25;;;10.50;99.90;;;;;;5020478;28;20408;-74
2023/12/23 06:22:53;;;;;;;37.75;3.88;;;10.40;99.90;;;;;;5075779;28;20072;-74
2023/12/23 06:25:19;;;;;;;23.65;3.92;;;10.50;99.90;;;;;;5018073;28;20022;-73
2023/12/23 06:27:45;;;;;;;26.40;3.67;;;10.50;99.90;;;;;;5028109;28;20018;-74
2023/12/23 06:30:11;;;;;;;23.77;3.90;;;10.40;99.90;;;;;;5028891;27;20032;-74
2023/12/23 06:32:37;;;;;;;22.40;4.10;;;10.40;99.90;;;;;;5027836;28;20032;-74
2023/12/23 06:35:03;;;;;;;17.98;3.08;;;10.40;99.90;;;;;;5027405;28;20500;-74
2023/12/23 06:37:29;;;;;;;24.88;3.72;;;10.40;99.90;;;;;;5030779;28;20036;-75
2023/12/23 06:39:54;;;;;;;28.33;4.03;;;10.40;99.90;;;;;;5026704;28;20030;-74
2023/12/23 06:42:20;;;;;;;21.52;3.15;;;10.50;99.90;;;;;;5022875;28;20025;-73
2023/12/23 06:44:46;;;;;;;20.02;3.40;;;10.40;99.90;;;;;;5024086;28;20108;-74
2023/12/23 06:47:11;;;;;;;30.40;4.60;;;10.40;99.90;;;;;;5022703;28;20030;-74
2023/12/23 06:49:37;;;;;;;22.95;3.85;;;10.40;99.90;;;;;;5019866;28;20025;-74
2023/12/23 06:52:03;;;;;;;25.55;3.42;;;10.40;99.90;;;;;;5023924;28;20029;-74
2023/12/23 06:54:29;;;;;;;19.83;3.22;;;10.40;99.90;;;;;;5026005;27;20485;-74
2023/12/23 06:56:54;;;;;;;24.58;3.45;;;10.40;99.90;;;;;;5049715;28;20030;-74
2023/12/23 06:59:20;;;;;;;28.10;3.60;;;10.40;99.90;;;;;;5021346;27;20082;-75
2023/12/23 07:01:45;;;;;;;21.58;3.50;;;10.40;99.90;;;;;;5018955;27;20018;-75
2023/12/23 07:04:11;;;;;;;20.23;3.80;;;10.40;99.90;;;;;;5028211;28;20026;-74
2023/12/23 07:06:37;;;;;;;25.33;3.60;;;10.50;99.90;;;;;;5042778;28;20033;-74
2023/12/23 07:09:03;;;;;;;22.50;3.47;;;10.50;99.90;;;;;;5022585;28;20030;-74
2023/12/23 07:11:28;;;;;;;22.80;3.25;;;10.50;99.90;;;;;;5029506;28;20018;-74
2023/12/23 07:13:54;;;;;;;26.27;3.53;;;10.50;99.90;;;;;;5028004;28;20101;-74
2023/12/23 07:16:19;;;;;;;24.80;3.30;;;10.50;99.90;;;;;;5029650;28;20068;-75
2023/12/23 07:18:45;;;;;;;18.27;2.97;;;10.50;99.90;;;;;;5058423;28;20021;-75
2023/12/23 07:21:11;;;;;;;27.30;3.63;;;10.50;99.90;;;;;;5028593;28;20028;-75
2023/12/23 07:23:36;;;;;;;17.00;3.25;;;10.60;99.90;;;;;;5024907;28;20057;-74
2023/12/23 07:26:03;;;;;;;21.80;3.13;;;10.60;99.90;;;;;;5030013;28;20017;-74
2023/12/23 07:28:29;;;;;;;27.20;3.90;;;10.60;99.90;;;;;;5027135;28;20178;-75
2023/12/23 07:30:55;;;;;;;19.98;3.78;;;10.60;99.90;;;;;;5028232;28;20077;-75
2023/12/23 07:33:21;;;;;;;23.60;3.90;;;10.60;99.90;;;;;;5021056;28;20029;-75
2023/12/23 07:35:47;;;;;;;25.80;3.53;;;10.60;99.90;;;;;;5023610;28;20029;-74
2023/12/23 07:38:12;;;;;;;21.73;3.15;;;10.60;99.90;;;;;;5023047;27;20019;-75
2023/12/23 07:40:39;;;;;;;24.77;3.67;;;10.60;99.90;;;;;;5021361;28;20034;-74
2023/12/23 07:43:04;;;;;;;17.55;2.90;;;10.60;99.90;;;;;;5012233;28;20032;-74
2023/12/23 07:45:30;;;;;;;15.45;2.55;;;10.60;99.90;;;;;;5011816;28;20026;-76
2023/12/23 07:47:56;;;;;;;16.90;2.95;;;10.70;99.90;;;;;;5012186;27;20057;-76
2023/12/23 07:50:22;;;;;;;21.52;3.25;;;10.70;99.90;;;;;;5014432;28;20029;-75
2023/12/23 07:52:49;;;;;;;20.20;3.33;;;10.70;99.90;;;;;;5020561;28;20014;-76
2023/12/23 07:55:15;;;;;;;18.13;3.20;;;10.70;99.90;;;;;;5013780;28;20049;-76
2023/12/23 07:57:42;;;;;;;23.65;3.35;;;10.70;99.90;;;;;;5025209;28;20057;-75
2023/12/23 08:00:09;;;;;;;21.52;3.00;;;10.70;99.90;;;;;;5018040;28;20024;-75
2023/12/23 08:02:35;;;;;;;20.83;2.80;;;10.70;99.90;;;;;;5027199;28;20021;-75
2023/12/23 08:05:02;;;;;;;21.05;2.88;;;10.70;99.90;;;;;;5023745;28;20036;-75
2023/12/23 08:07:28;;;;;;;18.83;3.28;;;10.70;99.90;;;;;;5022334;28;20030;-75
2023/12/23 08:09:53;;;;;;;19.00;2.90;;;10.70;99.90;;;;;;5015825;28;20101;-75
2023/12/23 08:12:19;;;;;;;13.35;2.40;;;10.70;99.90;;;;;;5014166;28;20030;-76
2023/12/23 08:14:44;;;;;;;26.48;3.58;;;10.70;99.90;;;;;;5022435;28;20014;-76
2023/12/23 08:17:11;;;;;;;23.35;2.95;;;10.70;99.90;;;;;;5008610;28;20067;-76
2023/12/23 08:19:37;;;;;;;24.38;3.55;;;10.70;99.90;;;;;;5022796;28;20025;-76
2023/12/23 08:22:03;;;;;;;20.23;2.78;;;10.60;99.90;;;;;;5093343;28;20112;-74
2023/12/23 08:24:28;;;;;;;23.38;3.15;;;10.60;99.90;;;;;;5024104;28;20056;-76
2023/12/23 08:26:54;;;;;;;17.33;3.00;;;10.50;99.90;;;;;;5094078;28;20116;-76
2023/12/23 08:29:20;;;;;;;20.05;2.95;;;10.50;99.90;;;;;;5023883;28;20057;-76
2023/12/23 08:31:46;;;;;;;21.42;3.15;;;10.40;99.90;;;;;;5019495;28;20053;-75
2023/12/23 08:34:12;;;;;;;22.73;3.45;;;10.40;99.90;;;;;;5020310;28;20021;-73
2023/12/23 08:36:37;;;;;;;20.88;2.60;;;10.40;99.90;;;;;;5027148;28;20030;-73
2023/12/23 08:39:03;;;;;;;23.63;3.80;;;10.50;99.90;;;;;;5023097;28;20077;-73
2023/12/23 08:41:29;;;;;;;22.63;2.83;;;10.50;99.90;;;;;;5027266;28;20033;-73
2023/12/23 08:43:54;;;;;;;21.63;2.80;;;10.60;99.90;;;;;;5027207;28;20073;-73
2023/12/23 08:46:20;;;;;;;19.63;3.22;;;10.60;99.90;;;;;;5026651;28;20026;-73
2023/12/23 08:48:46;;;;;;;24.20;3.03;;;10.60;99.90;;;;;;5027202;28;20045;-74
2023/12/23 08:51:11;;;;;;;21.63;2.75;;;10.60;99.90;;;;;;5091896;28;20026;-73
2023/12/23 08:53:37;;;;;;;21.45;3.65;;;10.60;99.90;;;;;;5019092;28;20033;-75
2023/12/23 08:56:03;;;;;;;21.52;3.30;;;10.60;99.90;;;;;;5013056;28;20026;-75
2023/12/23 08:58:30;;;;;;;16.48;3.05;;;10.70;99.90;;;;;;5027506;28;20051;-75
2023/12/23 09:00:57;;;;;;;24.25;2.90;;;10.70;99.90;;;;;;5015683;28;20545;-76
2023/12/23 09:03:22;;;;;;;21.73;3.00;;;10.70;99.90;;;;;;5026239;28;20029;-75
2023/12/23 09:05:48;;;;;;;21.08;3.13;;;10.70;99.90;;;;;;5014862;28;20025;-75
2023/12/23 09:08:14;;;;;;;21.63;3.42;;;10.70;99.90;;;;;;5015553;28;20486;-76
2023/12/23 09:10:39;;;;;;;24.00;3.40;;;10.80;99.90;;;;;;5027281;28;20482;-75
2023/12/23 09:13:05;;;;;;;22.63;3.50;;;10.70;99.90;;;;;;5027258;28;20026;-76
2023/12/23 09:15:31;;;;;;;22.05;3.08;;;10.80;99.90;;;;;;5025761;28;20060;-76
2023/12/23 09:17:56;;;;;;;18.08;3.08;;;10.70;99.90;;;;;;5109180;28;20026;-75
2023/12/23 09:20:22;;;;;;;21.92;2.80;;;10.70;99.90;;;;;;5029486;28;20033;-75
2023/12/23 09:22:48;;;;;;;24.38;3.30;;;10.70;99.90;;;;;;5027089;28;20108;-75
2023/12/23 09:25:13;;;;;;;22.55;3.13;;;10.70;99.90;;;;;;5027039;28;20454;-75
2023/12/23 09:27:39;;;;;;;18.42;3.13;;;10.80;99.90;;;;;;5027301;28;20074;-75
2023/12/23 09:30:05;;;;;;;28.27;3.58;;;10.80;99.90;;;;;;5030111;28;20101;-74
2023/12/23 09:32:31;;;;;;;22.35;3.38;;;10.80;99.90;;;;;;5024232;28;20021;-74
2023/12/23 09:34:56;;;;;;;31.35;4.00;;;10.80;99.90;;;;;;5110667;28;20020;-74
2023/12/23 09:37:22;;;;;;;18.00;3.33;;;10.80;99.90;;;;;;5034307;28;20034;-74
2023/12/23 09:39:48;;;;;;;22.15;3.72;;;10.80;99.90;;;;;;5022496;28;20034;-74
2023/12/23 09:42:14;;;;;;;21.65;3.42;;;10.80;99.90;;;;;;5026592;28;20053;-74
2023/12/23 09:44:40;;;;;;;24.73;3.22;;;10.80;99.90;;;;;;5009299;28;20026;-75
2023/12/23 09:47:07;;;;;;;24.75;3.67;;;10.80;99.90;;;;;;5089365;28;20048;-73
2023/12/23 09:49:33;;;;;;;23.17;3.47;;;10.80;99.90;;;;;;5026625;28;20473;-75
2023/12/23 09:51:59;;;;;;;19.30;3.13;;;10.80;99.90;;;;;;5027326;28;20030;-74
2023/12/23 09:54:27;;;;;;;23.48;3.15;;;10.80;99.90;;;;;;5027387;28;20026;-74
2023/12/23 09:56:53;;;;;;;21.13;3.03;;;10.90;99.90;;;;;;5096464;28;20053;-74
2023/12/23 09:59:19;;;;;;;18.13;3.17;;;10.90;99.90;;;;;;5025465;28;20053;-74
2023/12/23 10:01:45;;;;;;;21.52;3.00;;;10.90;99.90;;;;;;5027803;28;20037;-75
2023/12/23 10:04:11;;;;;;;25.88;3.28;;;10.90;99.90;;;;;;5022557;28;20017;-75
2023/12/23 10:06:37;;;;;;;17.90;2.63;;;10.90;99.90;;;;;;5025187;28;20034;-74
2023/12/23 10:09:03;;;;;;;20.70;3.08;;;10.90;99.90;;;;;;5026349;28;20026;-75
2023/12/23 10:11:29;;;;;;;18.08;2.72;;;11.00;99.90;;;;;;5019340;28;20045;-74
2023/12/23 10:13:56;;;;;;;27.88;4.25;;;11.00;99.90;;;;;;5023303;28;20057;-74
2023/12/23 10:16:21;;;;;;;18.70;2.58;;;11.00;99.90;;;;;;5014892;28;20112;-75
2023/12/23 10:18:47;;;;;;;18.33;2.50;;;11.10;99.90;;;;;;5093474;28;20057;-75
2023/12/23 10:21:13;;;;;;;16.92;2.97;;;11.10;99.90;;;;;;5020917;28;20048;-75
2023/12/23 10:23:38;;;;;;;14.38;2.92;;;11.10;99.90;;;;;;5030440;28;20029;-75
2023/12/23 10:26:04;;;;;;;14.82;2.30;;;11.10;99.90;;;;;;5099103;28;20032;-74
2023/12/23 10:28:30;;;;;;;15.68;2.15;;;11.20;99.90;;;;;;5048172;27;20385;-75
2023/12/23 10:31:03;;;;;;;12.77;2.30;;;11.20;99.90;;;;;;5030424;28;20478;-74
2023/12/23 10:33:36;;;;;;;21.05;2.53;;;11.20;99.90;;;;;;5098984;28;20032;-75
2023/12/23 10:36:05;;;;;;;13.63;2.03;;;11.30;99.90;;;;;;5017791;28;20029;-75
2023/12/23 10:38:33;;;;;;;15.90;2.45;;;11.30;99.90;;;;;;5096832;28;20397;-75
2023/12/23 10:41:11;;;;;;;17.50;2.55;;;11.30;99.90;;;;;;5093020;28;20086;-75
2023/12/23 10:43:37;;;;;;;15.45;2.42;;;11.40;99.90;;;;;;5027477;28;20509;-74
2023/12/23 10:46:06;;;;;;;15.40;2.30;;;11.40;99.90;;;;;;5030373;28;20026;-74
2023/12/23 10:48:33;;;;;;;13.65;2.53;;;11.40;99.90;;;;;;5017050;28;20033;-74
2023/12/23 10:51:01;;;;;;;16.42;2.40;;;11.40;99.90;;;;;;5021883;28;20048;-74
2023/12/23 10:53:28;;;;;;;20.17;2.80;;;11.40;99.90;;;;;;5028290;28;20018;-75
2023/12/23 10:55:54;;;;;;;22.67;2.65;;;11.40;99.90;;;;;;5021970;28;20028;-74
2023/12/23 10:58:21;;;;;;;14.15;2.65;;;11.40;99.90;;;;;;5027365;28;20132;-75
2023/12/23 11:00:48;;;;;;;21.10;2.10;;;11.40;99.90;;;;;;5024478;28;20401;-74
2023/12/23 11:03:15;;;;;;;18.10;2.40;;;11.40;99.90;;;;;;5023377;28;20026;-74
2023/12/23 11:05:42;;;;;;;16.58;2.42;;;11.40;99.90;;;;;;5012496;28;20038;-73
2023/12/23 11:08:16;;;;;;;15.85;2.30;;;11.50;99.90;;;;;;5028610;28;20482;-73
2023/12/23 11:10:42;;;;;;;15.13;2.50;;;11.50;99.90;;;;;;5012879;28;20025;-73
2023/12/23 11:13:08;;;;;;;21.50;2.67;;;11.50;99.90;;;;;;5027781;28;20028;-75
2023/12/23 11:15:38;;;;;;;15.68;2.17;;;11.50;99.90;;;;;;5028963;27;20498;-74
2023/12/23 11:18:04;;;;;;;14.27;2.15;;;11.50;99.90;;;;;;5031499;28;20143;-74
2023/12/23 11:20:35;;;;;;;15.77;2.30;;;11.40;99.90;;;;;;5063260;27;20109;-75
2023/12/23 11:23:27;;;;;;;16.80;2.67;;;11.50;99.90;;;;;;5030413;28;20047;-75
2023/12/23 11:25:54;;;;;;;23.08;2.47;;;11.40;99.90;;;;;;5025911;28;20030;-74
2023/12/23 11:28:20;;;;;;;18.13;2.28;;;11.40;99.90;;;;;;5023220;28;20482;-74
2023/12/23 11:30:50;;;;;;;16.35;2.30;;;11.40;99.90;;;;;;5026760;28;20033;-74
2023/12/23 11:33:19;;;;;;;16.73;2.22;;;11.40;99.90;;;;;;5020308;28;20387;-74
2023/12/23 11:35:50;;;;;;;15.18;2.15;;;11.40;99.90;;;;;;5029097;27;20018;-75
2023/12/23 11:38:16;;;;;;;14.77;2.05;;;11.40;99.90;;;;;;5029717;27;20029;-73
2023/12/23 11:40:42;;;;;;;18.83;2.63;;;11.40;99.90;;;;;;5045413;27;20029;-73
2023/12/23 11:43:08;;;;;;;12.75;1.77;;;11.40;99.90;;;;;;5017210;28;20045;-74
2023/12/23 11:45:38;;;;;;;9.10;1.55;;;11.40;99.90;;;;;;5021346;28;20033;-74
2023/12/23 11:48:07;;;;;;;17.17;2.10;;;11.40;99.90;;;;;;5026778;28;20429;-75
2023/12/23 11:50:32;;;;;;;13.57;1.73;;;11.30;99.90;;;;;;5027057;28;20144;-72
2023/12/23 11:52:59;;;;;;;13.43;1.55;;;11.30;99.90;;;;;;5029540;28;20569;-73
2023/12/23 11:55:25;;;;;;;11.43;1.98;;;11.30;99.90;;;;;;5025617;28;20033;-73
2023/12/23 11:57:51;;;;;;;11.90;2.13;;;11.30;99.90;;;;;;5019237;28;20026;-75
2023/12/23 12:00:18;;;;;;;14.00;2.25;;;11.30;99.90;;;;;;5015848;28;20015;-74
2023/12/23 12:02:43;;;;;;;7.72;1.52;;;11.30;99.90;;;;;;5020482;28;20041;-74
2023/12/23 12:05:09;;;;;;;10.13;2.13;;;11.30;99.90;;;;;;5024951;28;20029;-74
2023/12/23 12:07:35;;;;;;;13.88;2.15;;;11.30;99.90;;;;;;5027594;28;20363;-75
2023/12/23 12:10:00;;;;;;;15.73;2.22;;;11.30;99.90;;;;;;5028135;28;20048;-76
2023/12/23 12:12:26;;;;;;;14.25;2.00;;;11.30;99.90;;;;;;5020328;28;20405;-76
2023/12/23 12:14:52;;;;;;;7.78;1.70;;;11.30;99.90;;;;;;5024177;28;20049;-75
2023/12/23 12:17:17;;;;;;;12.27;1.70;;;11.30;99.90;;;;;;5029874;28;20078;-75
2023/12/23 12:19:43;;;;;;;10.88;1.55;;;11.30;99.90;;;;;;5030270;28;20028;-75
2023/12/23 12:22:09;;;;;;;12.30;1.60;;;11.30;99.90;;;;;;5028938;28;20049;-75
2023/12/23 12:24:35;;;;;;;14.80;1.80;;;11.40;99.90;;;;;;5038776;27;20022;-76
2023/12/23 12:27:02;;;;;;;17.55;2.13;;;11.40;99.90;;;;;;5022178;28;20053;-76
2023/12/23 12:29:28;;;;;;;13.57;1.95;;;11.40;99.90;;;;;;5024964;27;20113;-76
2023/12/23 12:31:55;;;;;;;10.52;2.13;;;11.40;99.90;;;;;;5018479;28;20497;-75